Time;durP1;ratioP1;P1;durP2;ratioP2;P2;SDS_P1;SDS_P2;PMS_P1;PMS_P2;Temp;Humidity;BMP_temperature;BMP_pressure;BME280_temperature;BME280_humidity;BME280_pressure;Samples;Min_cycle;Max_cycle;Signal;HPM_P1;HPM_P2
2022/01/28 00:00:35;;;;;;;6.20;1.50;;;;;;;1.56;100.00;98021.54;105040;1274;59793;-74
2022/01/28 00:03:23;;;;;;;5.30;1.20;;;;;;;1.55;100.00;98026.70;104847;1275;59717;-73
2022/01/28 00:06:10;;;;;;;6.20;1.30;;;;;;;1.54;100.00;98028.54;104939;1275;71977;-74
2022/01/28 00:08:57;;;;;;;5.50;1.20;;;;;;;1.53;100.00;98028.93;104947;1274;66869;-74
2022/01/28 00:11:45;;;;;;;6.60;1.50;;;;;;;1.51;100.00;98031.89;104638;1275;72259;-74
2022/01/28 00:14:41;;;;;;;4.30;1.10;;;;;;;1.49;100.00;98034.85;104917;1275;59675;-74
2022/01/28 00:18:05;;;;;;;5.70;1.30;;;;;;;1.45;100.00;98035.14;104883;1275;59680;-74
2022/01/28 00:39:15;;;;;;;5.10;1.20;;;;;;;1.26;100.00;98036.98;104782;1274;67953;-73
2022/01/28 00:42:03;;;;;;;5.70;1.30;;;;;;;1.30;100.00;98047.75;102715;1274;1003720;-73
2022/01/28 00:44:50;;;;;;;7.80;1.40;;;;;;;1.36;100.00;98050.27;104511;1275;59766;-73
2022/01/28 00:47:37;;;;;;;7.50;1.60;;;;;;;1.43;100.00;98053.94;104700;1274;60130;-73
2022/01/28 00:50:25;;;;;;;8.00;1.40;;;;;;;1.50;100.00;98056.95;104910;1274;73704;-74
2022/01/28 00:53:12;;;;;;;8.90;1.70;;;;;;;1.60;100.00;98060.58;104549;1275;68129;-73
2022/01/28 00:55:59;;;;;;;9.30;1.50;;;;;;;1.73;100.00;98067.55;104622;1274;71702;-73
2022/01/28 00:58:46;;;;;;;9.80;1.50;;;;;;;1.86;100.00;98070.28;104567;1274;59785;-73
2022/01/28 01:01:34;;;;;;;8.30;1.60;;;;;;;1.96;100.00;98068.13;104463;1275;60277;-74
2022/01/28 01:04:23;;;;;;;6.60;1.50;;;;;;;2.06;100.00;98072.84;104477;1275;73979;-73
2022/01/28 01:07:11;;;;;;;8.00;1.30;;;;;;;2.15;100.00;98070.91;105035;1274;66315;-73
2022/01/28 01:09:58;;;;;;;5.20;1.10;;;;;;;2.23;100.00;98078.40;105020;1274;73056;-73
2022/01/28 01:12:47;;;;;;;7.30;1.40;;;;;;;2.28;100.00;98083.41;104772;1277;59734;-73
2022/01/28 01:15:39;;;;;;;7.50;1.30;;;;;;;2.33;100.00;98088.09;104634;1275;60715;-74
2022/01/28 01:18:37;;;;;;;7.40;1.50;;;;;;;2.38;100.00;98088.48;103969;1274;1003498;-74
2022/01/28 01:21:26;;;;;;;4.50;1.00;;;;;;;2.45;100.00;98089.70;104840;1274;68040;-73
2022/01/28 01:24:22;;;;;;;5.80;1.40;;;;;;;2.48;100.00;98101.70;104648;1274;73390;-73
2022/01/28 01:27:09;;;;;;;7.20;1.50;;;;;;;2.51;100.00;98106.06;104904;1275;59721;-74
2022/01/28 01:29:56;;;;;;;6.30;1.30;;;;;;;2.52;100.00;98106.31;104493;1274;60619;-74
2022/01/28 01:32:44;;;;;;;7.00;1.50;;;;;;;2.54;100.00;98111.23;104780;1275;73925;-73
2022/01/28 01:35:32;;;;;;;7.40;1.50;;;;;;;2.56;100.00;98113.68;104808;1274;68252;-73
2022/01/28 01:38:24;;;;;;;7.90;1.70;;;;;;;2.56;100.00;98111.14;104747;1275;73048;-73
2022/01/28 01:41:19;;;;;;;6.40;1.40;;;;;;;2.60;100.00;98124.27;105014;1274;59634;-74
2022/01/28 01:44:28;;;;;;;6.70;1.40;;;;;;;2.60;100.00;98128.27;105294;1274;59572;-73
2022/01/28 01:53:43;;;;;;;6.50;1.40;;;;;;;2.60;100.00;98141.60;105102;1274;72833;-74
2022/01/28 01:56:32;;;;;;;7.80;1.40;;;;;;;2.57;100.00;98138.33;104572;1274;59587;-74
2022/01/28 01:59:20;;;;;;;6.50;1.00;;;;;;;2.58;100.00;98153.83;104984;1274;60719;-74
2022/01/28 02:02:08;;;;;;;6.90;1.20;;;;;;;2.55;100.00;98162.27;104937;1274;73351;-73
2022/01/28 02:04:55;;;;;;;5.10;1.00;;;;;;;2.51;100.00;98170.64;104915;1274;68118;-75
2022/01/28 02:07:45;;;;;;;5.60;1.00;;;;;;;2.46;100.00;98170.68;104931;1274;72415;-73
2022/01/28 02:10:35;;;;;;;5.50;1.20;;;;;;;2.43;100.00;98172.13;104832;1274;59793;-73
2022/01/28 02:13:27;;;;;;;5.80;1.00;;;;;;;2.39;100.00;98175.22;105028;1274;59606;-74
2022/01/28 02:16:15;;;;;;;4.80;1.20;;;;;;;2.36;100.00;98180.16;104872;1274;72483;-73
2022/01/28 02:19:03;;;;;;;5.80;1.10;;;;;;;2.34;100.00;98182.23;104964;1274;68022;-74
2022/01/28 02:21:52;;;;;;;6.10;1.10;;;;;;;2.33;100.00;98185.45;104999;1274;71722;-73
2022/01/28 02:24:44;;;;;;;7.90;1.40;;;;;;;2.31;100.00;98192.75;104720;1274;59668;-74
2022/01/28 02:27:31;;;;;;;5.40;1.20;;;;;;;2.30;100.00;98198.23;104708;1274;59672;-74
2022/01/28 02:30:19;;;;;;;5.20;1.20;;;;;;;2.30;100.00;98201.58;104565;1277;73172;-73
2022/01/28 02:33:19;;;;;;;5.40;1.00;;;;;;;2.28;100.00;98211.90;104200;1278;68612;-73
2022/01/28 02:36:07;;;;;;;5.00;1.00;;;;;;;2.25;100.00;98218.79;104655;1276;73112;-74
2022/01/28 02:38:54;;;;;;;4.00;1.00;;;;;;;2.18;100.00;98231.98;104691;1277;59802;-74
2022/01/28 02:41:45;;;;;;;4.30;0.80;;;;;;;2.13;100.00;98237.42;104444;1276;59753;-73
2022/01/28 02:44:52;;;;;;;4.40;1.00;;;;;;;2.09;100.00;98249.27;104585;1277;73225;-73
2022/01/28 02:47:42;;;;;;;3.40;0.90;;;;;;;2.03;100.00;98260.73;104373;1278;68491;-74
2022/01/28 02:50:38;;;;;;;3.80;1.00;;;;;;;1.98;100.00;98267.56;104566;1276;71708;-75
2022/01/28 02:53:36;;;;;;;3.50;1.00;;;;;;;1.93;100.00;98276.31;104397;1278;59682;-74
2022/01/28 02:59:21;;;;;;;4.10;1.00;;;;;;;1.80;100.00;98300.65;104646;1278;73285;-74
2022/01/28 03:02:08;;;;;;;3.50;0.90;;;;;;;1.75;100.00;98300.66;104777;1274;67732;-72
2022/01/28 03:08:03;;;;;;;4.20;1.00;;;;;;;1.62;100.00;98324.64;104629;1274;59710;-74
2022/01/28 03:16:59;;;;;;;3.40;0.90;;;;;;;1.41;100.00;98352.12;104856;1274;66531;-74
2022/01/28 03:19:53;;;;;;;3.70;0.90;;;;;;;1.34;100.00;98352.39;104829;1274;71632;-74
2022/01/28 03:22:40;;;;;;;4.20;1.00;;;;;;;1.28;100.00;98354.33;105272;1274;59779;-74
2022/01/28 03:25:27;;;;;;;3.70;0.80;;;;;;;1.25;100.00;98367.83;105034;1274;60384;-74
2022/01/28 03:28:19;;;;;;;4.10;1.10;;;;;;;1.21;100.00;98379.45;104780;1274;73640;-74
2022/01/28 03:31:06;;;;;;;6.70;1.40;;;;;;;1.20;100.00;98387.02;104926;1274;66909;-74
2022/01/28 03:33:53;;;;;;;6.70;1.70;;;;;;;1.18;100.00;98398.70;104713;1274;71600;-74
2022/01/28 03:36:40;;;;;;;8.60;2.10;;;;;;;1.15;100.00;98406.38;105066;1274;59641;-73
2022/01/28 03:39:27;;;;;;;22.70;5.80;;;;;;;1.11;100.00;98415.56;104726;1274;60583;-74
2022/01/28 03:42:15;;;;;;;18.50;5.50;;;;;;;1.06;100.00;98419.73;104496;1274;73309;-74
2022/01/28 03:45:05;;;;;;;8.50;2.80;;;;;;;1.01;100.00;98424.61;104832;1275;66917;-74
2022/01/28 03:47:51;;;;;;;6.60;1.80;;;;;;;0.95;100.00;98434.58;105070;1274;71827;-74
2022/01/28 03:50:38;;;;;;;5.00;1.30;;;;;;;0.89;100.00;98444.72;104865;1274;59662;-72
2022/01/28 03:53:25;;;;;;;3.10;0.80;;;;;;;0.84;100.00;98450.30;105190;1274;60385;-73
2022/01/28 03:56:12;;;;;;;3.80;1.10;;;;;;;0.77;100.00;98458.92;104883;1275;72276;-72
2022/01/28 03:58:59;;;;;;;3.50;0.90;;;;;;;0.70;100.00;98463.77;104648;1277;68532;-73
2022/01/28 04:01:48;;;;;;;3.60;0.90;;;;;;;0.63;100.00;98473.04;104631;1277;73000;-73
2022/01/28 04:05:32;;;;;;;4.10;0.90;;;;;;;0.57;100.00;98481.67;104485;1276;59583;-73
2022/01/28 04:14:09;;;;;;;3.80;1.10;;;;;;;0.39;100.00;98506.81;104751;1276;66014;-73
2022/01/28 04:20:01;;;;;;;6.20;1.50;;;;;;;0.34;100.00;98524.92;104935;1276;59622;-74
2022/01/28 04:22:49;;;;;;;6.70;1.70;;;;;;;0.31;100.00;98533.62;104312;1276;61004;-73
2022/01/28 04:25:36;;;;;;;6.40;1.60;;;;;;;0.30;100.00;98537.16;104736;1276;73866;-74
2022/01/28 04:28:25;;;;;;;6.50;1.20;;;;;;;0.32;100.00;98549.47;104799;1277;66648;-73
2022/01/28 04:31:13;;;;;;;7.80;1.60;;;;;;;0.32;100.00;98556.09;105154;1274;71850;-73
2022/01/28 04:34:01;;;;;;;8.50;2.40;;;;;;;0.34;100.00;98569.89;104670;1273;59772;-73
2022/01/28 04:40:01;;;;;;;7.90;2.00;;;;;;;0.38;100.00;98586.10;104810;1274;73255;-74
2022/01/28 04:45:52;;;;;;;6.00;1.30;;;;;;;0.40;100.00;98604.48;105195;1274;71517;-73
2022/01/28 04:48:54;;;;;;;5.60;1.80;;;;;;;0.40;100.00;98609.39;104834;1274;59874;-73
2022/01/28 05:04:12;;;;;;;3.40;0.90;;;;;;;0.49;100.00;98671.67;105444;1273;59662;-74
2022/01/28 05:23:24;;;;;;;5.60;1.00;;;;;;;0.50;100.00;98742.97;105227;1273;59659;-74
2022/01/28 05:26:00;;;;;;;4.10;1.10;;;;;;;0.48;100.00;98759.83;105304;1272;72211;-74
2022/01/28 05:28:39;;;;;;;4.50;0.90;;;;;;;0.47;100.00;98765.13;105177;1273;68539;-74
2022/01/28 05:31:27;;;;;;;5.60;1.00;;;;;;;0.47;100.00;98771.08;105397;1273;72010;-74
2022/01/28 05:34:23;;;;;;;3.90;1.10;;;;;;;0.45;100.00;98779.91;105227;1271;59685;-73
2022/01/28 05:37:11;;;;;;;4.20;1.00;;;;;;;0.45;100.00;98790.38;105055;1273;60776;-74
2022/01/28 05:39:57;;;;;;;4.30;0.90;;;;;;;0.45;100.00;98800.15;105127;1273;72557;-73
2022/01/28 05:42:45;;;;;;;4.10;1.00;;;;;;;0.44;100.00;98815.06;105068;1273;68031;-73
2022/01/28 05:45:32;;;;;;;4.40;1.10;;;;;;;0.43;100.00;98822.99;105034;1273;73614;-74
2022/01/28 05:48:22;;;;;;;5.90;1.50;;;;;;;0.42;100.00;98831.23;105145;1273;59669;-73
2022/01/28 05:51:09;;;;;;;4.80;1.00;;;;;;;0.41;100.00;98850.13;104868;1274;59660;-74
2022/01/28 05:53:58;;;;;;;4.40;1.10;;;;;;;0.37;100.00;98851.73;105085;1273;72138;-73
2022/01/28 05:56:44;;;;;;;5.60;1.20;;;;;;;0.39;100.00;98863.34;104926;1274;68225;-73
2022/01/28 05:59:32;;;;;;;5.00;1.20;;;;;;;0.39;100.00;98880.94;104928;1273;73448;-74
2022/01/28 06:02:19;;;;;;;6.10;1.20;;;;;;;0.38;100.00;98891.83;105121;1274;59758;-73
2022/01/28 06:05:07;;;;;;;6.30;1.30;;;;;;;0.36;100.00;98898.92;105225;1273;60392;-73
2022/01/28 06:07:54;;;;;;;4.90;1.30;;;;;;;0.36;100.00;98907.13;105175;1273;73797;-73
2022/01/28 06:10:41;;;;;;;5.00;1.20;;;;;;;0.36;100.00;98909.92;104767;1273;68713;-73
2022/01/28 06:13:28;;;;;;;6.70;1.30;;;;;;;0.37;100.00;98923.33;105212;1273;73085;-73
2022/01/28 06:16:17;;;;;;;5.00;1.40;;;;;;;0.37;100.00;98921.55;105068;1273;61281;-72
2022/01/28 06:19:04;;;;;;;6.00;1.20;;;;;;;0.38;100.00;98936.34;105210;1273;60568;-74
2022/01/28 06:21:50;;;;;;;5.50;1.10;;;;;;;0.39;100.00;98939.23;104698;1273;73330;-73
2022/01/28 06:24:37;;;;;;;6.00;1.10;;;;;;;0.41;100.00;98944.03;105251;1273;68069;-73
2022/01/28 06:27:24;;;;;;;7.80;1.50;;;;;;;0.44;100.00;98954.67;105296;1273;71600;-73
2022/01/28 06:30:13;;;;;;;6.50;1.40;;;;;;;0.47;100.00;98967.79;105059;1273;59880;-73
2022/01/28 06:33:00;;;;;;;7.50;1.50;;;;;;;0.48;100.00;98980.61;104885;1273;60635;-72
2022/01/28 06:35:47;;;;;;;7.20;1.50;;;;;;;0.50;100.00;98988.91;104835;1273;71783;-74
2022/01/28 06:38:34;;;;;;;5.50;1.80;;;;;;;0.53;100.00;98992.45;105126;1273;68071;-72
2022/01/28 06:41:22;;;;;;;5.90;1.10;;;;;;;0.53;100.00;98999.91;105085;1273;71944;-74
2022/01/28 06:44:10;;;;;;;5.80;1.30;;;;;;;0.54;100.00;99008.95;104716;1274;59583;-73
2022/01/28 06:46:58;;;;;;;7.30;1.30;;;;;;;0.56;100.00;99020.56;105065;1273;59747;-72
2022/01/28 06:49:48;;;;;;;5.60;1.20;;;;;;;0.55;100.00;99024.46;105227;1273;74816;-73
2022/01/28 06:52:37;;;;;;;6.30;1.50;;;;;;;0.57;100.00;99032.89;104880;1273;66855;-73
2022/01/28 06:55:23;;;;;;;8.00;1.40;;;;;;;0.58;100.00;99045.41;105152;1273;73001;-74
2022/01/28 06:58:10;;;;;;;5.80;1.20;;;;;;;0.57;100.00;99049.66;104999;1273;59843;-73
2022/01/28 07:00:57;;;;;;;5.20;1.20;;;;;;;0.58;100.00;99061.45;105043;1273;59564;-74
2022/01/28 07:03:44;;;;;;;7.90;1.40;;;;;;;0.60;100.00;99060.14;105047;1273;72052;-72
2022/01/28 07:06:31;;;;;;;5.10;1.40;;;;;;;0.62;100.00;99068.56;105314;1273;68746;-73
2022/01/28 07:09:18;;;;;;;4.60;1.20;;;;;;;0.64;100.00;99081.56;105026;1273;71756;-74
2022/01/28 07:12:06;;;;;;;7.40;1.40;;;;;;;0.64;100.00;99085.06;105382;1273;60426;-74
2022/01/28 07:14:53;;;;;;;6.00;1.20;;;;;;;0.63;100.00;99102.38;105175;1274;59656;-74
2022/01/28 07:17:40;;;;;;;5.80;1.20;;;;;;;0.64;100.00;99109.70;104940;1274;73045;-74
2022/01/28 07:20:33;;;;;;;6.60;1.20;;;;;;;0.62;100.00;99125.13;104875;1274;68405;-73
2022/01/28 07:23:21;;;;;;;6.90;1.20;;;;;;;0.62;100.00;99125.48;104703;1275;72108;-74
2022/01/28 07:26:08;;;;;;;4.70;1.10;;;;;;;0.62;100.00;99126.02;105077;1274;59720;-74
2022/01/28 07:28:54;;;;;;;6.40;1.30;;;;;;;0.61;99.99;99143.68;104929;1275;59566;-74
2022/01/28 07:31:42;;;;;;;6.80;1.20;;;;;;;0.62;100.00;99146.98;104995;1273;74130;-74
2022/01/28 07:34:29;;;;;;;7.60;1.40;;;;;;;0.61;99.86;99159.58;105271;1273;67009;-75
2022/01/28 07:37:16;;;;;;;5.80;1.30;;;;;;;0.61;99.49;99162.20;105238;1273;72969;-75
2022/01/28 07:40:04;;;;;;;6.00;1.20;;;;;;;0.64;98.77;99173.92;105127;1273;59666;-74
2022/01/28 07:42:51;;;;;;;5.90;1.20;;;;;;;0.70;98.60;99182.16;104908;1274;59731;-70
2022/01/28 07:45:38;;;;;;;6.60;1.30;;;;;;;0.69;98.13;99197.78;104880;1273;73872;-70
2022/01/28 07:48:25;;;;;;;5.70;1.20;;;;;;;0.67;98.41;99207.65;104931;1273;66741;-71
2022/01/28 07:51:12;;;;;;;6.00;1.00;;;;;;;0.67;98.82;99212.16;105232;1273;73169;-70
2022/01/28 07:54:00;;;;;;;5.90;1.20;;;;;;;0.69;98.99;99222.94;105077;1273;59651;-71
2022/01/28 07:56:52;;;;;;;5.10;1.00;;;;;;;0.69;99.24;99231.99;105244;1273;59592;-70
2022/01/28 07:59:38;;;;;;;5.60;1.40;;;;;;;0.69;98.89;99232.16;104936;1273;73214;-70
2022/01/28 08:02:26;;;;;;;4.90;1.10;;;;;;;0.73;99.21;99247.38;105469;1273;69423;-70
2022/01/28 08:05:14;;;;;;;5.80;1.10;;;;;;;0.73;99.09;99255.19;104890;1273;71902;-70
2022/01/28 08:08:04;;;;;;;5.10;1.20;;;;;;;0.75;99.22;99263.66;104987;1273;59736;-71
2022/01/28 08:10:52;;;;;;;4.30;1.00;;;;;;;0.79;99.38;99265.38;105206;1273;60400;-70
2022/01/28 08:13:40;;;;;;;4.90;1.30;;;;;;;0.83;99.38;99278.96;105140;1273;73313;-70
2022/01/28 08:16:26;;;;;;;6.20;1.20;;;;;;;0.89;99.13;99285.66;104937;1274;68501;-70
2022/01/28 08:19:13;;;;;;;7.50;1.20;;;;;;;0.89;98.77;99292.84;104983;1274;71684;-70
2022/01/28 08:22:00;;;;;;;5.20;1.30;;;;;;;0.91;99.07;99295.52;105326;1273;59766;-72
2022/01/28 08:24:46;;;;;;;7.30;1.20;;;;;;;0.93;98.96;99306.08;104882;1274;59946;-71
2022/01/28 08:27:33;;;;;;;7.30;1.50;;;;;;;0.96;98.87;99309.79;105260;1274;73334;-71
2022/01/28 08:30:24;;;;;;;6.60;1.40;;;;;;;0.96;98.74;99310.44;104950;1274;68015;-70
2022/01/28 08:33:11;;;;;;;6.20;1.20;;;;;;;0.99;98.24;99329.52;104877;1274;73024;-70
2022/01/28 08:35:57;;;;;;;4.90;1.20;;;;;;;1.02;97.86;99330.77;105290;1274;59689;-71
2022/01/28 08:38:44;;;;;;;6.40;1.50;;;;;;;1.04;96.87;99347.83;105068;1273;60383;-71
2022/01/28 08:41:34;;;;;;;5.30;1.30;;;;;;;1.07;96.66;99347.85;105377;1273;73522;-70
2022/01/28 08:44:22;;;;;;;5.70;1.40;;;;;;;1.15;96.97;99349.88;104917;1273;67957;-71
2022/01/28 08:47:09;;;;;;;5.00;1.10;;;;;;;1.27;97.18;99348.93;104973;1273;73346;-70
2022/01/28 08:49:56;;;;;;;5.10;1.40;;;;;;;1.30;96.40;99365.05;104953;1273;59694;-70
2022/01/28 08:52:46;;;;;;;6.60;1.40;;;;;;;1.30;96.09;99371.66;105312;1273;60611;-71
2022/01/28 08:55:33;;;;;;;6.10;1.30;;;;;;;1.29;95.75;99387.29;105037;1273;73355;-71
2022/01/28 08:58:20;;;;;;;7.70;1.50;;;;;;;1.28;95.95;99394.47;105058;1274;66596;-71
2022/01/28 09:01:10;;;;;;;4.70;1.40;;;;;;;1.30;95.56;99403.84;105086;1273;73240;-71
2022/01/28 09:03:56;;;;;;;6.90;1.30;;;;;;;1.37;95.48;99403.27;105003;1273;60217;-71
2022/01/28 09:06:45;;;;;;;5.00;1.20;;;;;;;1.52;94.99;99410.96;105385;1273;60250;-73
2022/01/28 09:09:32;;;;;;;6.00;1.20;;;;;;;1.66;93.94;99422.47;105239;1273;72324;-71
2022/01/28 09:12:39;;;;;;;4.30;1.00;;;;;;;1.79;93.42;99436.70;104887;1273;66495;-71
2022/01/28 09:15:26;;;;;;;6.70;1.60;;;;;;;1.81;92.40;99439.19;104979;1274;71824;-72
2022/01/28 09:18:19;;;;;;;5.50;1.60;;;;;;;1.86;92.00;99447.37;105231;1273;59721;-72
2022/01/28 09:21:06;;;;;;;6.20;1.70;;;;;;;1.91;92.18;99450.79;105084;1273;59683;-71
2022/01/28 09:23:53;;;;;;;5.70;1.50;;;;;;;1.93;92.06;99457.30;105232;1273;73387;-72
2022/01/28 09:26:45;;;;;;;5.20;1.20;;;;;;;1.97;92.03;99452.22;105132;1273;68155;-71
2022/01/28 09:29:33;;;;;;;5.20;1.20;;;;;;;1.99;91.46;99457.88;104962;1274;72994;-71
2022/01/28 09:32:19;;;;;;;4.50;1.00;;;;;;;1.96;91.26;99461.71;105159;1273;59676;-71
2022/01/28 09:35:07;;;;;;;5.80;1.40;;;;;;;1.92;90.47;99467.35;104989;1273;60580;-72
2022/01/28 09:37:56;;;;;;;7.10;1.10;;;;;;;1.84;90.59;99469.67;103773;1273;1003349;-72
2022/01/28 09:40:44;;;;;;;6.20;1.10;;;;;;;1.82;91.40;99473.95;105056;1273;67990;-71
2022/01/28 09:43:34;;;;;;;6.70;1.20;;;;;;;1.82;91.33;99474.52;105130;1273;72602;-72
2022/01/28 09:46:22;;;;;;;4.50;1.10;;;;;;;1.76;90.97;99488.79;105133;1273;60436;-73
2022/01/28 09:49:11;;;;;;;5.40;1.20;;;;;;;1.70;92.04;99495.72;104843;1273;60538;-72
2022/01/28 09:52:00;;;;;;;5.50;1.20;;;;;;;1.64;93.09;99512.09;104915;1273;71842;-72
2022/01/28 09:54:48;;;;;;;4.60;1.00;;;;;;;1.57;93.74;99515.98;104872;1273;66854;-72
2022/01/28 09:57:37;;;;;;;5.20;1.10;;;;;;;1.58;94.20;99515.05;104891;1273;71598;-71
2022/01/28 10:00:27;;;;;;;6.20;1.50;;;;;;;1.59;94.20;99514.67;104857;1274;59719;-74
2022/01/28 10:03:18;;;;;;;5.70;1.30;;;;;;;1.60;94.45;99528.39;104873;1273;60854;-75
2022/01/28 10:06:06;;;;;;;4.70;1.20;;;;;;;1.65;94.57;99544.96;104900;1273;73351;-74
2022/01/28 10:08:55;;;;;;;4.90;1.10;;;;;;;1.77;93.53;99550.11;104882;1273;66791;-73
2022/01/28 10:11:47;;;;;;;5.30;1.10;;;;;;;1.91;92.23;99549.09;104864;1273;72040;-74
2022/01/28 10:14:56;;;;;;;5.80;1.40;;;;;;;2.02;91.45;99551.87;104904;1273;59783;-74
2022/01/28 10:17:58;;;;;;;5.00;1.10;;;;;;;1.96;91.41;99564.79;104929;1273;59638;-75
2022/01/28 10:20:48;;;;;;;4.40;1.10;;;;;;;1.86;91.91;99569.11;105113;1273;71864;-74
2022/01/28 10:23:36;;;;;;;4.50;1.10;;;;;;;1.79;91.63;99577.14;105161;1273;67282;-74
2022/01/28 10:26:50;;;;;;;4.70;1.00;;;;;;;1.80;92.49;99580.09;104924;1274;73234;-74
2022/01/28 10:29:43;;;;;;;5.90;1.20;;;;;;;1.83;92.71;99583.45;104865;1274;60110;-74
2022/01/28 10:32:31;;;;;;;6.40;1.20;;;;;;;1.80;92.27;99594.22;105137;1273;59721;-74
2022/01/28 10:35:32;;;;;;;4.70;1.30;;;;;;;1.81;92.57;99595.09;104999;1273;72171;-75
2022/01/28 10:38:28;;;;;;;6.30;1.00;;;;;;;1.80;92.41;99589.70;105077;1273;67011;-74
2022/01/28 10:41:21;;;;;;;4.70;1.10;;;;;;;1.73;92.75;99609.62;105415;1273;72897;-73
2022/01/28 10:44:11;;;;;;;4.10;1.10;;;;;;;1.66;93.33;99631.30;104950;1273;59724;-74
2022/01/28 10:47:06;;;;;;;3.70;1.00;;;;;;;1.60;94.04;99638.58;104909;1276;60399;-73
2022/01/28 10:49:54;;;;;;;5.40;1.30;;;;;;;1.56;94.01;99633.52;105036;1273;73620;-73
2022/01/28 10:52:42;;;;;;;4.80;1.00;;;;;;;1.63;93.92;99635.31;105305;1273;67341;-74
2022/01/28 10:55:35;;;;;;;5.90;1.30;;;;;;;1.79;93.58;99641.17;104852;1273;73180;-74
2022/01/28 10:58:27;;;;;;;5.30;1.40;;;;;;;1.97;93.00;99639.27;104745;1274;59782;-75
2022/01/28 11:01:16;;;;;;;4.60;1.20;;;;;;;2.04;91.19;99643.84;105337;1273;59683;-74
2022/01/28 11:04:05;;;;;;;5.00;1.40;;;;;;;2.10;89.78;99651.91;104816;1274;72156;-74
2022/01/28 11:06:58;;;;;;;4.70;1.10;;;;;;;2.10;87.54;99661.39;104879;1274;67997;-74
2022/01/28 11:09:48;;;;;;;4.30;1.10;;;;;;;2.12;87.89;99669.87;105104;1274;72117;-74
2022/01/28 11:12:37;;;;;;;4.70;1.10;;;;;;;2.11;86.60;99677.95;105599;1273;59838;-73
2022/01/28 11:15:27;;;;;;;5.40;1.20;;;;;;;2.16;86.32;99677.72;105209;1273;60119;-73
2022/01/28 11:18:17;;;;;;;6.00;1.30;;;;;;;2.16;84.27;99685.62;105113;1272;72469;-73
2022/01/28 11:21:13;;;;;;;4.50;1.00;;;;;;;2.14;84.56;99696.86;105258;1273;66974;-73
2022/01/28 11:24:36;;;;;;;5.90;1.40;;;;;;;2.09;84.92;99707.28;104919;1273;71319;-74
2022/01/28 11:27:35;;;;;;;6.20;1.30;;;;;;;1.96;86.43;99717.87;104947;1279;60234;-74
2022/01/28 11:30:28;;;;;;;4.30;1.00;;;;;;;1.85;86.31;99726.95;104629;1280;59684;-74
2022/01/28 11:33:18;;;;;;;5.30;1.30;;;;;;;1.72;86.77;99725.65;104689;1279;72997;-74
2022/01/28 11:36:07;;;;;;;5.60;1.20;;;;;;;1.63;87.11;99732.38;104729;1280;67959;-73
2022/01/28 11:39:07;;;;;;;5.40;1.40;;;;;;;1.57;88.07;99736.84;104466;1280;72045;-73
2022/01/28 11:42:18;;;;;;;5.60;1.60;;;;;;;1.51;88.53;99746.88;104556;1281;59767;-74
2022/01/28 11:45:09;;;;;;;6.90;1.40;;;;;;;1.42;88.26;99748.33;104327;1281;60128;-74
2022/01/28 11:47:58;;;;;;;6.10;1.30;;;;;;;1.36;87.47;99749.63;104708;1281;73473;-73
2022/01/28 11:50:51;;;;;;;5.40;1.30;;;;;;;1.34;87.51;99750.97;104119;1281;65920;-74
2022/01/28 11:53:57;;;;;;;6.10;1.40;;;;;;;1.33;85.93;99754.14;102064;1281;1003516;-74
2022/01/28 11:56:57;;;;;;;5.00;1.20;;;;;;;1.32;85.74;99761.02;104539;1281;59840;-73
2022/01/28 11:59:46;;;;;;;5.30;1.30;;;;;;;1.29;84.40;99780.05;104739;1281;60253;-73
2022/01/28 12:02:47;;;;;;;4.90;1.30;;;;;;;1.28;83.66;99786.90;104935;1281;73504;-73
2022/01/28 12:05:39;;;;;;;5.50;1.10;;;;;;;1.30;83.38;99797.45;104818;1273;67310;-73
2022/01/28 12:08:30;;;;;;;4.40;1.10;;;;;;;1.33;82.45;99801.53;105099;1273;72992;-73
2022/01/28 12:11:43;;;;;;;4.40;1.00;;;;;;;1.33;81.44;99809.91;105210;1273;59732;-73
2022/01/28 12:15:00;;;;;;;7.50;1.40;;;;;;;1.33;81.36;99811.16;105242;1273;60697;-73
2022/01/28 12:17:50;;;;;;;5.90;1.20;;;;;;;1.30;80.07;99810.77;105120;1273;73364;-73
2022/01/28 12:20:58;;;;;;;7.00;1.20;;;;;;;1.29;80.33;99821.10;105049;1273;66996;-73
2022/01/28 12:23:47;;;;;;;5.90;1.10;;;;;;;1.28;79.27;99826.94;104823;1273;71792;-72
2022/01/28 12:27:03;;;;;;;5.90;1.50;;;;;;;1.27;80.18;99832.38;105044;1273;59778;-73
2022/01/28 12:29:57;;;;;;;5.80;1.30;;;;;;;1.26;79.59;99835.05;105045;1273;59798;-73
2022/01/28 12:32:47;;;;;;;5.60;1.20;;;;;;;1.24;79.38;99848.58;105203;1273;73144;-73
2022/01/28 12:35:41;;;;;;;9.10;1.60;;;;;;;1.23;79.99;99843.39;105389;1273;66950;-71
2022/01/28 12:38:31;;;;;;;6.70;1.30;;;;;;;1.22;79.86;99847.46;105234;1274;73209;-73
2022/01/28 12:41:24;;;;;;;6.50;1.50;;;;;;;1.21;79.44;99855.89;104975;1273;59662;-74
2022/01/28 12:44:16;;;;;;;6.50;1.20;;;;;;;1.20;78.99;99861.70;104924;1273;59568;-73
2022/01/28 12:47:12;;;;;;;5.30;1.20;;;;;;;1.18;79.23;99874.89;105376;1273;71752;-72
2022/01/28 12:50:04;;;;;;;5.50;1.20;;;;;;;1.16;79.11;99881.26;105362;1273;68422;-73
2022/01/28 12:52:52;;;;;;;7.70;1.30;;;;;;;1.16;79.60;99889.48;105169;1273;72872;-74
2022/01/28 12:55:41;;;;;;;8.90;1.50;;;;;;;1.14;79.77;99896.17;104824;1273;59802;-73
2022/01/28 12:58:49;;;;;;;5.60;1.20;;;;;;;1.13;80.09;99900.42;105201;1273;60645;-73
2022/01/28 13:01:38;;;;;;;6.00;1.20;;;;;;;1.07;79.06;99900.68;104843;1273;73833;-73
2022/01/28 13:04:51;;;;;;;5.30;1.20;;;;;;;1.04;79.04;99910.95;104662;1273;66618;-74
2022/01/28 13:10:50;;;;;;;7.20;1.50;;;;;;;1.00;80.84;99927.85;105249;1273;59773;-74
2022/01/28 13:13:51;;;;;;;5.50;1.40;;;;;;;1.01;81.09;99932.89;104881;1274;59564;-73
2022/01/28 13:16:45;;;;;;;7.00;1.50;;;;;;;1.00;80.87;99943.27;105387;1273;73510;-73
2022/01/28 13:19:33;;;;;;;8.80;1.40;;;;;;;0.96;81.19;99947.95;105337;1273;68023;-72
2022/01/28 13:22:32;;;;;;;7.60;1.30;;;;;;;0.95;81.23;99950.61;104917;1273;72981;-73
2022/01/28 13:25:28;;;;;;;7.70;1.70;;;;;;;0.94;81.02;99950.83;105112;1273;59906;-73
2022/01/28 13:28:19;;;;;;;5.80;1.30;;;;;;;0.94;81.07;99962.89;105075;1273;60664;-72
2022/01/28 13:31:07;;;;;;;8.40;1.60;;;;;;;0.95;81.32;99974.89;104869;1273;72974;-72
2022/01/28 13:33:59;;;;;;;6.40;1.60;;;;;;;0.93;80.71;99976.55;104911;1274;68828;-73
2022/01/28 13:36:51;;;;;;;7.00;1.60;;;;;;;0.93;81.43;99983.88;104895;1274;71682;-73
2022/01/28 13:39:44;;;;;;;6.90;1.70;;;;;;;0.93;80.71;99989.81;105117;1273;59803;-73
2022/01/28 13:42:32;;;;;;;7.50;1.40;;;;;;;0.94;81.39;99997.13;105061;1274;60917;-73
2022/01/28 13:45:43;;;;;;;6.90;1.70;;;;;;;0.93;81.14;99995.75;104918;1274;73025;-73
2022/01/28 13:48:39;;;;;;;10.50;1.40;;;;;;;0.89;80.99;99996.79;104957;1274;68193;-71
2022/01/28 13:51:27;;;;;;;6.00;1.20;;;;;;;0.85;82.21;100005.15;105167;1273;72960;-73
2022/01/28 13:54:18;;;;;;;6.90;1.40;;;;;;;0.78;83.09;100011.90;105378;1274;59708;-73
2022/01/28 13:57:08;;;;;;;6.00;1.20;;;;;;;0.72;84.15;100015.44;104964;1273;59834;-73
2022/01/28 14:00:04;;;;;;;8.00;1.30;;;;;;;0.68;84.92;100020.45;105152;1273;73174;-71
2022/01/28 14:03:01;;;;;;;5.40;1.30;;;;;;;0.65;86.41;100035.92;104682;1275;67218;-73
2022/01/28 14:05:54;;;;;;;5.90;1.40;;;;;;;0.61;87.38;100039.25;104611;1275;71959;-74
2022/01/28 14:09:14;;;;;;;8.50;1.50;;;;;;;0.53;89.08;100046.52;105089;1273;59756;-73
2022/01/28 14:12:03;;;;;;;5.80;1.20;;;;;;;0.43;89.18;100043.39;105269;1273;60249;-73
2022/01/28 14:14:57;;;;;;;8.30;1.70;;;;;;;0.38;89.50;100054.03;105151;1274;72989;-73
2022/01/28 14:17:45;;;;;;;8.20;1.40;;;;;;;0.35;89.73;100052.59;104842;1273;67824;-73
2022/01/28 14:20:35;;;;;;;7.10;1.50;;;;;;;0.33;90.14;100058.90;104864;1273;71700;-73
2022/01/28 14:23:23;;;;;;;7.50;1.30;;;;;;;0.32;90.77;100069.08;104975;1274;59683;-74
2022/01/28 14:26:11;;;;;;;6.20;1.50;;;;;;;0.32;91.16;100074.49;104928;1273;59612;-73
2022/01/28 14:32:21;;;;;;;7.70;1.50;;;;;;;0.24;91.77;100086.67;104935;1275;68343;-74
2022/01/28 14:35:10;;;;;;;6.20;1.40;;;;;;;0.21;92.59;100101.94;105081;1273;71475;-74
2022/01/28 14:37:58;;;;;;;9.40;1.60;;;;;;;0.20;92.93;100117.32;104843;1274;59725;-73
2022/01/28 14:40:46;;;;;;;11.00;1.90;;;;;;;0.14;93.98;100116.11;104996;1273;60963;-73
2022/01/28 14:43:35;;;;;;;7.00;1.80;;;;;;;0.10;94.25;100120.61;104905;1275;73376;-74
2022/01/28 14:46:25;;;;;;;5.40;1.40;;;;;;;0.06;94.27;100130.52;104753;1275;67111;-74